createdAt,value
2022-11-05T00:00:34.865Z,10.63
2022-11-05T00:03:27.987Z,10.61
2022-11-05T00:06:15.348Z,10.61
2022-11-05T00:09:02.569Z,10.61
2022-11-05T00:11:49.790Z,10.63
2022-11-05T00:14:37.102Z,10.65
2022-11-05T00:17:05.602Z,10.64
2022-11-05T00:19:34.394Z,10.64
2022-11-05T00:22:21.408Z,10.64
2022-11-05T00:25:08.624Z,10.65
2022-11-05T00:27:37.003Z,10.65
2022-11-05T00:30:07.430Z,10.65
2022-11-05T00:32:38.066Z,10.63
2022-11-05T00:35:07.365Z,10.62
2022-11-05T00:37:36.357Z,10.60
2022-11-05T00:40:05.308Z,10.57
2022-11-05T00:42:52.267Z,10.55
2022-11-05T00:45:21.365Z,10.51
2022-11-05T00:48:08.381Z,10.46
2022-11-05T00:50:37.271Z,10.37
2022-11-05T00:53:05.652Z,10.26
2022-11-05T00:55:35.877Z,10.19
2022-11-05T00:58:06.406Z,10.14
2022-11-05T01:00:35.875Z,10.06
2022-11-05T01:03:05.625Z,9.99
2022-11-05T01:05:35.127Z,9.93
2022-11-05T01:08:03.815Z,9.86
2022-11-05T01:10:32.500Z,9.77
2022-11-05T01:13:00.885Z,9.69
2022-11-05T01:15:29.464Z,9.63
2022-11-05T01:17:58.153Z,9.59
2022-11-05T01:20:27.115Z,9.56
2022-11-05T01:22:55.628Z,9.51
2022-11-05T01:25:24.211Z,9.44
2022-11-05T01:27:52.489Z,9.41
2022-11-05T01:30:21.176Z,9.41
2022-11-05T01:32:49.863Z,9.42
2022-11-05T01:35:18.755Z,9.46
2022-11-05T01:37:47.441Z,9.48
2022-11-05T01:40:17.509Z,9.49
2022-11-05T01:42:45.940Z,9.54
2022-11-05T01:45:14.325Z,9.59
2022-11-05T01:47:56.588Z,9.62
2022-11-05T01:50:27.980Z,9.64
2022-11-05T01:53:02.871Z,9.65
2022-11-05T01:55:33.760Z,9.68
2022-11-05T01:58:03.458Z,9.70
2022-11-05T02:00:31.940Z,9.74
2022-11-05T02:03:00.561Z,9.77
2022-11-05T02:05:29.194Z,9.79
2022-11-05T02:07:57.998Z,9.82
2022-11-05T02:10:26.583Z,9.83
2022-11-05T02:12:55.373Z,9.85
2022-11-05T02:15:37.064Z,9.90
2022-11-05T02:18:23.985Z,9.93
2022-11-05T02:20:55.125Z,9.94
2022-11-05T02:23:26.747Z,9.94
2022-11-05T02:25:58.230Z,9.94
2022-11-05T02:28:45.043Z,9.96
2022-11-05T02:31:28.285Z,9.99
2022-11-05T02:34:03.613Z,10.04
2022-11-05T02:36:32.611Z,10.05
2022-11-05T02:39:12.661Z,10.06
2022-11-05T02:41:48.925Z,10.10
2022-11-05T02:44:17.100Z,10.14
2022-11-05T02:46:48.757Z,10.16
2022-11-05T02:49:27.991Z,10.17
2022-11-05T02:52:02.616Z,10.19
2022-11-05T02:54:37.039Z,10.20
2022-11-05T02:57:06.136Z,10.19
2022-11-05T02:59:34.617Z,10.17
2022-11-05T03:02:04.194Z,10.12
2022-11-05T03:04:33.118Z,10.07
2022-11-05T03:07:07.641Z,10.04
2022-11-05T03:09:38.989Z,10.01
2022-11-05T03:12:07.164Z,9.99
2022-11-05T03:14:35.646Z,9.97
2022-11-05T03:17:07.301Z,9.94
2022-11-05T03:20:01.807Z,9.93
2022-11-05T03:22:35.396Z,9.89
2022-11-05T03:25:08.999Z,9.86
2022-11-05T03:27:39.631Z,9.85
2022-11-05T03:30:09.594Z,9.85
2022-11-05T03:32:42.594Z,9.87
2022-11-05T03:35:16.751Z,9.88
2022-11-05T03:37:47.587Z,9.90
2022-11-05T03:40:17.503Z,9.95
2022-11-05T03:42:50.179Z,9.99
2022-11-05T03:45:21.020Z,10.02
2022-11-05T03:47:52.218Z,10.02
2022-11-05T03:50:25.463Z,9.98
2022-11-05T03:52:56.297Z,9.97
2022-11-05T03:55:28.467Z,9.95
2022-11-05T03:57:58.563Z,9.93
2022-11-05T04:00:27.070Z,9.93
2022-11-05T04:02:55.882Z,9.95
2022-11-05T04:05:24.242Z,9.95
2022-11-05T04:08:14.407Z,9.95
2022-11-05T04:11:02.160Z,9.96
2022-11-05T04:13:31.053Z,9.99
2022-11-05T04:16:18.275Z,10.00
2022-11-05T04:18:47.066Z,10.02
2022-11-05T04:21:34.081Z,10.05
2022-11-05T04:24:08.618Z,10.05
2022-11-05T04:26:39.036Z,10.07
2022-11-05T04:29:26.460Z,10.09
2022-11-05T04:31:55.048Z,10.10
2022-11-05T04:34:23.831Z,10.10
2022-11-05T04:36:53.438Z,10.08
2022-11-05T04:39:21.989Z,10.07
2022-11-05T04:41:50.710Z,10.07
2022-11-05T04:44:19.090Z,10.06
2022-11-05T04:46:47.369Z,10.06
2022-11-05T04:49:16.262Z,10.06
2022-11-05T04:51:44.744Z,10.07
2022-11-05T04:54:13.222Z,10.07
2022-11-05T04:56:42.011Z,10.08
2022-11-05T04:59:10.554Z,10.07
2022-11-05T05:01:39.066Z,10.05
2022-11-05T05:04:07.662Z,10.03
2022-11-05T05:06:36.861Z,10.01
2022-11-05T05:09:05.343Z,9.99
2022-11-05T05:11:33.752Z,9.97
2022-11-05T05:14:02.206Z,9.95
2022-11-05T05:16:30.788Z,9.94
2022-11-05T05:18:59.376Z,9.94
2022-11-05T05:21:40.676Z,9.92
2022-11-05T05:24:13.849Z,9.91
2022-11-05T05:26:44.179Z,9.89
2022-11-05T05:29:13.066Z,9.88
2022-11-05T05:31:41.444Z,9.87
2022-11-05T05:34:14.296Z,9.85
2022-11-05T05:36:42.914Z,9.86
2022-11-05T05:39:11.506Z,9.89
2022-11-05T05:41:39.776Z,9.94
2022-11-05T05:44:08.363Z,10.01
2022-11-05T05:46:36.846Z,10.09
2022-11-05T05:49:11.070Z,10.16
2022-11-05T05:51:40.973Z,10.23
2022-11-05T05:54:10.789Z,10.27
2022-11-05T05:56:39.270Z,10.35
2022-11-05T05:59:08.272Z,10.42
2022-11-05T06:01:37.090Z,10.51
2022-11-05T06:04:05.738Z,10.60
2022-11-05T06:06:34.375Z,10.69
2022-11-05T06:09:02.584Z,10.80
2022-11-05T06:11:31.299Z,10.94
2022-11-05T06:13:59.704Z,11.08
2022-11-05T06:16:28.866Z,11.22
2022-11-05T06:18:57.556Z,11.35
2022-11-05T06:21:26.138Z,11.47
2022-11-05T06:23:54.517Z,11.58
2022-11-05T06:26:23.105Z,11.66
2022-11-05T06:28:52.059Z,11.75
2022-11-05T06:31:21.705Z,11.84
2022-11-05T06:33:50.287Z,11.93
2022-11-05T06:36:19.590Z,12.04
2022-11-05T06:38:47.971Z,12.18
2022-11-05T06:41:16.246Z,12.30
2022-11-05T06:43:44.905Z,12.43
2022-11-05T06:46:13.415Z,12.57
2022-11-05T06:48:41.692Z,12.72
2022-11-05T06:51:10.278Z,12.86
2022-11-05T06:53:38.861Z,12.99
2022-11-05T06:56:07.915Z,13.11
2022-11-05T06:58:36.644Z,13.23
2022-11-05T07:01:08.121Z,13.34
2022-11-05T07:03:37.193Z,13.46
2022-11-05T07:06:06.777Z,13.58
2022-11-05T07:08:35.903Z,13.69
2022-11-05T07:11:04.584Z,13.79
2022-11-05T07:13:33.272Z,13.86
2022-11-05T07:16:01.755Z,13.97
2022-11-05T07:18:30.136Z,14.11
2022-11-05T07:20:59.727Z,14.24
2022-11-05T07:23:28.239Z,14.39
2022-11-05T07:25:56.503Z,14.54
2022-11-05T07:28:24.882Z,14.74
2022-11-05T07:30:54.560Z,14.94
2022-11-05T07:33:23.076Z,15.15
2022-11-05T07:35:51.456Z,15.41
2022-11-05T07:38:20.040Z,15.64
2022-11-05T07:40:48.481Z,15.84
2022-11-05T07:43:16.918Z,16.04
2022-11-05T07:45:45.693Z,16.20
2022-11-05T07:48:14.072Z,16.35
2022-11-05T07:50:42.352Z,16.46
2022-11-05T07:53:14.732Z,16.56
2022-11-05T07:55:44.330Z,16.66
2022-11-05T07:58:12.987Z,16.74
2022-11-05T08:00:41.539Z,16.85
2022-11-05T08:03:17.359Z,17.01
2022-11-05T08:05:48.004Z,17.14
2022-11-05T08:08:17.904Z,17.28
2022-11-05T08:10:46.704Z,17.41
2022-11-05T08:13:15.553Z,17.53
2022-11-05T08:15:44.684Z,17.67
2022-11-05T08:18:14.498Z,17.82
2022-11-05T08:20:43.390Z,17.99
2022-11-05T08:23:12.254Z,18.11
2022-11-05T08:25:41.589Z,18.19
2022-11-05T08:28:13.776Z,18.30
2022-11-05T08:30:42.660Z,18.42
2022-11-05T08:33:12.528Z,18.60
2022-11-05T08:35:41.351Z,18.79
2022-11-05T08:38:11.059Z,18.89
2022-11-05T08:40:40.156Z,19.01
2022-11-05T08:43:10.293Z,19.21
2022-11-05T08:45:38.964Z,19.43
2022-11-05T08:48:08.572Z,19.63
2022-11-05T08:50:37.669Z,19.77
2022-11-05T08:53:06.458Z,20.02
2022-11-05T08:55:35.116Z,20.34
2022-11-05T08:58:04.859Z,20.70
2022-11-05T09:00:35.182Z,21.04
2022-11-05T09:03:04.944Z,21.27
2022-11-05T09:05:38.304Z,21.42
2022-11-05T09:08:07.770Z,21.54
2022-11-05T09:10:36.486Z,21.60
2022-11-05T09:13:04.813Z,21.67
2022-11-05T09:15:34.065Z,21.75
2022-11-05T09:18:08.626Z,21.84
2022-11-05T09:20:37.074Z,21.90
2022-11-05T09:23:05.452Z,22.06
2022-11-05T09:25:34.139Z,22.35
2022-11-05T09:28:12.280Z,22.65
2022-11-05T09:30:44.026Z,22.96
2022-11-05T09:33:13.245Z,23.07
2022-11-05T09:35:42.199Z,23.08
2022-11-05T09:38:11.092Z,23.01
2022-11-05T09:40:57.802Z,23.04
2022-11-05T09:43:46.355Z,23.32
2022-11-05T09:46:23.953Z,23.68
2022-11-05T09:48:54.636Z,23.91
2022-11-05T09:51:24.284Z,24.12
2022-11-05T09:53:54.112Z,24.26
2022-11-05T09:56:27.516Z,24.42
2022-11-05T09:59:01.213Z,24.74
2022-11-05T10:01:32.768Z,25.06
2022-11-05T10:04:03.131Z,25.39
2022-11-05T10:06:31.881Z,25.68
2022-11-05T10:09:02.983Z,25.91
2022-11-05T10:11:38.268Z,26.06
2022-11-05T10:14:10.948Z,26.28
2022-11-05T10:16:44.141Z,26.44
2022-11-05T10:19:22.352Z,26.54
2022-11-05T10:22:09.912Z,26.78
2022-11-05T10:24:41.099Z,26.92
2022-11-05T10:27:15.042Z,26.95
2022-11-05T10:29:43.725Z,26.99
2022-11-05T10:32:17.842Z,27.15
2022-11-05T10:34:46.425Z,27.55
2022-11-05T10:37:14.908Z,28.00
2022-11-05T10:39:43.596Z,28.32
2022-11-05T10:42:11.976Z,28.59
2022-11-05T10:44:49.491Z,28.82
2022-11-05T10:47:36.795Z,29.08
2022-11-05T10:50:10.015Z,29.24
2022-11-05T10:52:40.462Z,29.40
2022-11-05T10:55:21.903Z,29.50
2022-11-05T10:57:50.693Z,29.82
2022-11-05T11:00:23.684Z,30.16
2022-11-05T11:02:54.108Z,30.33
2022-11-05T11:05:28.633Z,30.32
2022-11-05T11:08:02.007Z,30.48
2022-11-05T11:10:33.074Z,30.78
2022-11-05T11:13:01.456Z,31.17
2022-11-05T11:15:35.466Z,31.50
2022-11-05T11:18:22.791Z,31.77
2022-11-05T11:20:51.683Z,32.05
2022-11-05T11:23:20.166Z,32.16
2022-11-05T11:25:51.618Z,32.22
2022-11-05T11:28:40.379Z,32.36
2022-11-05T11:31:08.858Z,32.43
2022-11-05T11:33:38.379Z,32.52
2022-11-05T11:36:07.007Z,32.71
2022-11-05T11:38:37.142Z,33.06
2022-11-05T11:41:16.996Z,33.19
2022-11-05T11:43:46.530Z,33.29
2022-11-05T11:46:16.753Z,33.32
2022-11-05T11:48:47.766Z,33.36
2022-11-05T11:51:30.715Z,33.36
2022-11-05T11:53:59.861Z,33.41
2022-11-05T11:56:29.223Z,33.52
2022-11-05T11:58:58.314Z,33.53
2022-11-05T12:01:32.902Z,33.49
2022-11-05T12:04:21.703Z,33.43
2022-11-05T12:06:59.499Z,33.48
2022-11-05T12:09:46.558Z,33.62
2022-11-05T12:12:16.331Z,33.68
2022-11-05T12:15:00.992Z,33.55
2022-11-05T12:17:48.421Z,33.37
2022-11-05T12:20:16.984Z,33.27
2022-11-05T12:23:06.172Z,33.29
2022-11-05T12:25:40.491Z,33.32
2022-11-05T12:28:08.872Z,33.31
2022-11-05T12:31:03.568Z,33.12
2022-11-05T12:33:38.656Z,32.90
2022-11-05T12:36:07.393Z,32.85
2022-11-05T12:38:44.684Z,32.87
2022-11-05T12:41:28.217Z,32.72
2022-11-05T12:44:06.228Z,32.53
2022-11-05T12:46:44.127Z,32.46
2022-11-05T12:49:31.151Z,32.58
2022-11-05T12:52:23.384Z,32.58
2022-11-05T12:55:24.123Z,32.48
2022-11-05T12:57:54.263Z,32.16
2022-11-05T13:00:24.160Z,31.76
2022-11-05T13:03:05.232Z,31.45
2022-11-05T13:05:39.557Z,31.27
2022-11-05T13:08:10.906Z,31.01
2022-11-05T13:10:51.997Z,30.97
2022-11-05T13:13:29.581Z,30.85
2022-11-05T13:16:24.691Z,30.62
2022-11-05T13:18:56.549Z,30.19
2022-11-05T13:21:26.477Z,29.85
2022-11-05T13:24:33.450Z,29.57
2022-11-05T13:27:25.074Z,29.25
2022-11-05T13:29:57.125Z,29.02
2022-11-05T13:32:31.562Z,28.79
2022-11-05T13:35:02.047Z,28.53
2022-11-05T13:37:59.043Z,28.40
2022-11-05T13:40:42.170Z,28.11
2022-11-05T13:43:30.815Z,27.92
2022-11-05T13:46:18.149Z,27.73
2022-11-05T13:48:46.734Z,27.26
2022-11-05T13:51:27.401Z,26.78
2022-11-05T13:53:55.887Z,26.27
2022-11-05T13:56:39.829Z,25.73
2022-11-05T13:59:23.878Z,25.17
2022-11-05T14:01:57.333Z,24.71
2022-11-05T14:04:25.965Z,24.35
2022-11-05T14:07:04.888Z,23.98
2022-11-05T14:09:34.754Z,23.49
2022-11-05T14:12:05.264Z,23.00
2022-11-05T14:14:42.419Z,22.59
2022-11-05T14:17:11.152Z,22.21
2022-11-05T14:19:59.761Z,21.87
2022-11-05T14:22:31.463Z,21.51
2022-11-05T14:25:00.618Z,21.22
2022-11-05T14:27:28.791Z,20.93
2022-11-05T14:29:57.478Z,20.67
2022-11-05T14:32:27.846Z,20.43
2022-11-05T14:35:19.123Z,20.16
2022-11-05T14:37:47.810Z,19.86
2022-11-05T14:40:22.129Z,19.61
2022-11-05T14:42:55.833Z,19.34
2022-11-05T14:45:30.055Z,19.11
2022-11-05T14:48:00.632Z,18.90
2022-11-05T14:50:34.916Z,18.69
2022-11-05T14:53:13.036Z,18.49
2022-11-05T14:55:42.840Z,18.29
2022-11-05T14:58:26.870Z,18.11
2022-11-05T15:00:55.897Z,17.92
2022-11-05T15:03:35.133Z,17.77
2022-11-05T15:06:03.482Z,17.62
2022-11-05T15:08:51.930Z,17.49
2022-11-05T15:11:20.109Z,17.37
2022-11-05T15:13:54.935Z,17.27
2022-11-05T15:16:23.211Z,17.17
2022-11-05T15:18:53.832Z,17.07
2022-11-05T15:21:22.530Z,16.98
2022-11-05T15:23:54.233Z,16.87
2022-11-05T15:26:26.560Z,16.79
2022-11-05T15:28:55.758Z,16.70
2022-11-05T15:31:45.646Z,16.62
2022-11-05T15:34:18.871Z,16.52
2022-11-05T15:36:51.968Z,16.45
2022-11-05T15:39:30.211Z,16.39
2022-11-05T15:42:01.422Z,16.34
2022-11-05T15:44:31.327Z,16.28
2022-11-05T15:47:06.847Z,16.21
2022-11-05T15:49:35.843Z,16.15
2022-11-05T15:52:05.059Z,16.08
2022-11-05T15:54:33.644Z,16.01
2022-11-05T15:57:02.656Z,15.94
2022-11-05T15:59:31.471Z,15.88
2022-11-05T16:02:19.511Z,15.81
2022-11-05T16:04:48.854Z,15.76
2022-11-05T16:07:17.744Z,15.70
2022-11-05T16:09:59.852Z,15.66
2022-11-05T16:12:33.052Z,15.61
2022-11-05T16:15:10.439Z,15.57
2022-11-05T16:17:46.600Z,15.53
2022-11-05T16:20:34.920Z,15.47
2022-11-05T16:23:07.416Z,15.41
2022-11-05T16:25:36.532Z,15.36
2022-11-05T16:28:06.738Z,15.30
2022-11-05T16:30:35.017Z,15.25
2022-11-05T16:33:04.819Z,15.20
2022-11-05T16:35:33.820Z,15.16
2022-11-05T16:38:03.240Z,15.12
2022-11-05T16:40:31.504Z,15.09
2022-11-05T16:43:09.711Z,15.06
2022-11-05T16:45:41.454Z,15.02
2022-11-05T16:48:12.030Z,14.99
2022-11-05T16:50:40.995Z,14.96
2022-11-05T16:53:09.682Z,14.92
2022-11-05T16:55:39.344Z,14.90
2022-11-05T16:58:14.890Z,14.88
2022-11-05T17:00:43.319Z,14.85
2022-11-05T17:03:12.010Z,14.83
2022-11-05T17:05:40.448Z,14.79
2022-11-05T17:08:09.385Z,14.75
2022-11-05T17:10:38.171Z,14.73
2022-11-05T17:13:06.550Z,14.70
2022-11-05T17:15:37.802Z,14.68
2022-11-05T17:18:06.183Z,14.65
2022-11-05T17:20:40.726Z,14.62
2022-11-05T17:23:12.188Z,14.58
2022-11-05T17:25:41.302Z,14.56
2022-11-05T17:28:10.219Z,14.53
2022-11-05T17:30:41.473Z,14.51
2022-11-05T17:33:11.489Z,14.50
2022-11-05T17:35:40.911Z,14.48
2022-11-05T17:38:10.483Z,14.47
2022-11-05T17:40:39.481Z,14.47
2022-11-05T17:43:07.807Z,14.47
2022-11-05T17:45:41.469Z,14.49
2022-11-05T17:48:10.696Z,14.52
2022-11-05T17:50:42.823Z,14.55
2022-11-05T17:53:11.975Z,14.57
2022-11-05T17:55:41.893Z,14.60
2022-11-05T17:58:10.972Z,14.64
2022-11-05T18:00:40.078Z,14.66
2022-11-05T18:03:10.076Z,14.69
2022-11-05T18:05:40.212Z,14.72
2022-11-05T18:08:09.203Z,14.76
2022-11-05T18:10:38.104Z,14.79
2022-11-05T18:13:06.882Z,14.83
2022-11-05T18:15:36.589Z,14.87
2022-11-05T18:18:04.972Z,14.89
2022-11-05T18:20:33.658Z,14.90
2022-11-05T18:23:02.552Z,14.92
2022-11-05T18:25:31.137Z,14.94
2022-11-05T18:27:59.620Z,14.96
2022-11-05T18:30:27.996Z,14.99
2022-11-05T18:32:56.786Z,15.00
2022-11-05T18:35:25.165Z,15.02
2022-11-05T18:37:53.544Z,15.02
2022-11-05T18:40:22.230Z,15.03
2022-11-05T18:42:50.610Z,15.04
2022-11-05T18:45:18.888Z,15.05
2022-11-05T18:47:47.883Z,15.06
2022-11-05T18:50:16.568Z,15.07
2022-11-05T18:52:44.949Z,15.08
2022-11-05T18:55:13.738Z,15.10
2022-11-05T18:57:42.184Z,15.10
2022-11-05T19:00:10.906Z,15.10
2022-11-05T19:02:39.511Z,15.10
2022-11-05T19:05:28.051Z,15.11
2022-11-05T19:07:57.550Z,15.13
2022-11-05T19:10:26.007Z,15.14
2022-11-05T19:12:54.726Z,15.15
2022-11-05T19:15:23.200Z,15.17
2022-11-05T19:17:51.786Z,15.17
2022-11-05T19:20:20.165Z,15.17
2022-11-05T19:22:48.852Z,15.17
2022-11-05T19:25:17.539Z,15.16
2022-11-05T19:27:45.919Z,15.17
2022-11-05T19:30:14.711Z,15.15
2022-11-05T19:32:42.991Z,15.13
2022-11-05T19:35:11.469Z,15.12
2022-11-05T19:37:40.259Z,15.12
2022-11-05T19:40:09.150Z,15.10
2022-11-05T19:42:37.425Z,15.09
2022-11-05T19:45:30.401Z,15.08
2022-11-05T19:47:55.075Z,15.09
2022-11-05T19:50:23.879Z,15.09
2022-11-05T19:52:52.245Z,15.10
2022-11-05T19:55:20.932Z,15.10
2022-11-05T19:57:49.415Z,15.10
2022-11-05T20:00:17.996Z,15.09
2022-11-05T20:02:46.923Z,15.08
2022-11-05T20:05:15.783Z,15.06
2022-11-05T20:07:49.663Z,15.06
2022-11-05T20:10:21.629Z,15.06
2022-11-05T20:12:50.041Z,15.06
2022-11-05T20:15:19.951Z,15.06
2022-11-05T20:17:50.183Z,15.05
2022-11-05T20:20:19.063Z,15.05
2022-11-05T20:22:47.344Z,15.05
2022-11-05T20:25:16.233Z,15.04
2022-11-05T20:27:44.717Z,15.04
2022-11-05T20:30:13.299Z,15.02
2022-11-05T20:32:41.678Z,15.01
2022-11-05T20:35:10.374Z,15.00
2022-11-05T20:37:38.846Z,15.00
2022-11-05T20:40:07.636Z,14.99
2022-11-05T20:42:36.427Z,14.98
2022-11-05T20:45:05.010Z,14.97
2022-11-05T20:47:33.710Z,14.97
2022-11-05T20:50:04.227Z,14.99
2022-11-05T20:52:33.634Z,14.99
2022-11-05T20:55:02.626Z,14.99
2022-11-05T20:57:31.005Z,14.99
2022-11-05T20:59:59.588Z,14.98
2022-11-05T21:02:28.553Z,14.98
2022-11-05T21:04:56.953Z,14.97
2022-11-05T21:07:25.342Z,14.97
2022-11-05T21:09:53.930Z,14.97
2022-11-05T21:12:23.437Z,14.98
2022-11-05T21:14:52.635Z,14.98
2022-11-05T21:17:21.217Z,14.97
2022-11-05T21:19:49.699Z,14.98
2022-11-05T21:22:18.283Z,14.97
2022-11-05T21:24:46.867Z,14.96
2022-11-05T21:27:15.460Z,14.96
2022-11-05T21:29:43.831Z,14.96
2022-11-05T21:32:12.415Z,14.95
2022-11-05T21:34:40.898Z,14.96
2022-11-05T21:37:09.242Z,14.96
2022-11-05T21:39:37.787Z,14.95
2022-11-05T21:42:06.036Z,14.96
2022-11-05T21:44:34.622Z,14.97
2022-11-05T21:47:04.747Z,14.96
2022-11-05T21:49:34.554Z,14.95
2022-11-05T21:52:21.951Z,14.94
2022-11-05T21:55:09.099Z,14.95
2022-11-05T21:57:56.520Z,14.97
2022-11-05T22:00:25.009Z,14.97
2022-11-05T22:02:53.816Z,14.98
2022-11-05T22:05:22.177Z,14.99
2022-11-05T22:07:50.967Z,14.99
2022-11-05T22:10:19.448Z,14.99
2022-11-05T22:12:47.931Z,14.99
2022-11-05T22:15:16.723Z,14.99
2022-11-05T22:17:47.119Z,15.01
2022-11-05T22:20:16.449Z,15.01
2022-11-05T22:22:45.120Z,15.02
2022-11-05T22:25:14.537Z,15.03
2022-11-05T22:27:44.113Z,15.03
2022-11-05T22:30:12.888Z,15.04
2022-11-05T22:32:41.555Z,15.04
2022-11-05T22:35:10.009Z,15.04
2022-11-05T22:37:38.386Z,15.04
2022-11-05T22:40:07.172Z,15.04
2022-11-05T22:42:35.602Z,15.03
2022-11-05T22:45:04.240Z,15.04
2022-11-05T22:47:32.720Z,15.05
2022-11-05T22:50:01.571Z,15.04
2022-11-05T22:52:30.163Z,15.05
2022-11-05T22:54:58.681Z,15.05
2022-11-05T22:57:27.524Z,15.05
2022-11-05T22:59:56.155Z,15.05
2022-11-05T23:02:24.775Z,15.05
2022-11-05T23:04:53.118Z,15.05
2022-11-05T23:07:40.545Z,15.05
2022-11-05T23:10:27.825Z,15.05
2022-11-05T23:12:56.364Z,15.06
2022-11-05T23:15:43.984Z,15.07
2022-11-05T23:18:30.615Z,15.07
2022-11-05T23:21:21.984Z,15.06
2022-11-05T23:24:06.984Z,15.07
2022-11-05T23:26:52.263Z,15.05
2022-11-05T23:29:21.959Z,15.05
2022-11-05T23:32:09.804Z,15.05
2022-11-05T23:34:39.000Z,15.05
2022-11-05T23:37:26.836Z,15.05
2022-11-05T23:39:55.420Z,15.05
2022-11-05T23:42:42.337Z,15.03
2022-11-05T23:45:29.762Z,15.04
2022-11-05T23:48:16.960Z,15.04
2022-11-05T23:50:47.212Z,15.03
2022-11-05T23:53:15.995Z,15.01
2022-11-05T23:55:44.589Z,15.01
2022-11-05T23:58:13.138Z,15.00
